sensor_id;sensor_type;location;lat;lon;timestamp;P1;durP1;ratioP1;P2;durP2;ratioP2
75993;SDS011;64680;53.800;9.988;2023-08-07T00:00:13;4.68;;;2.05;;
75993;SDS011;64680;53.800;9.988;2023-08-07T00:02:39;2.58;;;1.75;;
75993;SDS011;64680;53.800;9.988;2023-08-07T00:05:05;1.58;;;1.30;;
75993;SDS011;64680;53.800;9.988;2023-08-07T00:07:31;2.13;;;1.50;;
75993;SDS011;64680;53.800;9.988;2023-08-07T00:09:57;3.10;;;1.40;;
75993;SDS011;64680;53.800;9.988;2023-08-07T00:12:22;3.88;;;1.42;;
75993;SDS011;64680;53.800;9.988;2023-08-07T00:14:49;2.42;;;1.60;;
75993;SDS011;64680;53.800;9.988;2023-08-07T00:17:16;3.78;;;1.83;;
75993;SDS011;64680;53.800;9.988;2023-08-07T00:19:41;4.30;;;2.40;;
75993;SDS011;64680;53.800;9.988;2023-08-07T00:22:07;3.38;;;1.65;;
75993;SDS011;64680;53.800;9.988;2023-08-07T00:24:33;3.42;;;1.67;;
75993;SDS011;64680;53.800;9.988;2023-08-07T00:26:59;3.42;;;1.77;;
75993;SDS011;64680;53.800;9.988;2023-08-07T00:29:24;2.72;;;1.40;;
75993;SDS011;64680;53.800;9.988;2023-08-07T00:31:50;3.80;;;1.73;;
75993;SDS011;64680;53.800;9.988;2023-08-07T00:34:15;3.97;;;2.00;;
75993;SDS011;64680;53.800;9.988;2023-08-07T00:36:41;5.65;;;1.67;;
75993;SDS011;64680;53.800;9.988;2023-08-07T00:39:06;5.55;;;1.63;;
75993;SDS011;64680;53.800;9.988;2023-08-07T00:41:33;3.40;;;1.58;;
75993;SDS011;64680;53.800;9.988;2023-08-07T00:43:59;4.25;;;1.77;;
75993;SDS011;64680;53.800;9.988;2023-08-07T00:46:25;2.85;;;1.70;;
75993;SDS011;64680;53.800;9.988;2023-08-07T00:48:52;3.30;;;1.83;;
75993;SDS011;64680;53.800;9.988;2023-08-07T00:51:18;3.03;;;1.60;;
75993;SDS011;64680;53.800;9.988;2023-08-07T00:53:45;4.47;;;1.85;;
75993;SDS011;64680;53.800;9.988;2023-08-07T00:56:11;2.20;;;1.50;;
75993;SDS011;64680;53.800;9.988;2023-08-07T00:58:37;3.88;;;1.88;;
75993;SDS011;64680;53.800;9.988;2023-08-07T01:01:03;1.65;;;1.45;;
75993;SDS011;64680;53.800;9.988;2023-08-07T01:03:30;4.05;;;1.40;;
75993;SDS011;64680;53.800;9.988;2023-08-07T01:05:55;4.35;;;2.15;;
75993;SDS011;64680;53.800;9.988;2023-08-07T01:08:21;4.25;;;2.20;;
75993;SDS011;64680;53.800;9.988;2023-08-07T01:13:36;3.80;;;1.60;;
75993;SDS011;64680;53.800;9.988;2023-08-07T01:16:11;3.00;;;1.60;;
75993;SDS011;64680;53.800;9.988;2023-08-07T01:18:42;3.10;;;1.40;;
75993;SDS011;64680;53.800;9.988;2023-08-07T01:21:16;5.65;;;2.15;;
75993;SDS011;64680;53.800;9.988;2023-08-07T01:23:42;2.50;;;1.50;;
75993;SDS011;64680;53.800;9.988;2023-08-07T01:26:08;2.13;;;1.30;;
75993;SDS011;64680;53.800;9.988;2023-08-07T01:28:36;2.25;;;1.70;;
75993;SDS011;64680;53.800;9.988;2023-08-07T01:31:07;2.67;;;1.80;;
75993;SDS011;64680;53.800;9.988;2023-08-07T01:33:43;2.05;;;1.20;;
75993;SDS011;64680;53.800;9.988;2023-08-07T01:36:15;2.67;;;1.60;;
75993;SDS011;64680;53.800;9.988;2023-08-07T01:38:41;3.38;;;1.55;;
75993;SDS011;64680;53.800;9.988;2023-08-07T01:41:07;4.50;;;1.65;;
75993;SDS011;64680;53.800;9.988;2023-08-07T01:43:34;3.20;;;1.70;;
75993;SDS011;64680;53.800;9.988;2023-08-07T01:45:59;3.10;;;1.65;;
75993;SDS011;64680;53.800;9.988;2023-08-07T01:48:25;3.75;;;1.40;;
75993;SDS011;64680;53.800;9.988;2023-08-07T01:50:52;3.10;;;1.15;;
75993;SDS011;64680;53.800;9.988;2023-08-07T01:53:18;1.52;;;1.20;;
75993;SDS011;64680;53.800;9.988;2023-08-07T01:55:44;3.22;;;1.50;;
75993;SDS011;64680;53.800;9.988;2023-08-07T01:58:09;3.83;;;2.08;;
75993;SDS011;64680;53.800;9.988;2023-08-07T02:00:35;2.17;;;1.27;;
75993;SDS011;64680;53.800;9.988;2023-08-07T02:03:00;3.17;;;1.50;;
75993;SDS011;64680;53.800;9.988;2023-08-07T02:05:26;4.43;;;1.60;;
75993;SDS011;64680;53.800;9.988;2023-08-07T02:07:51;2.10;;;1.45;;
75993;SDS011;64680;53.800;9.988;2023-08-07T02:10:17;2.03;;;1.75;;
75993;SDS011;64680;53.800;9.988;2023-08-07T02:12:43;2.28;;;1.42;;
75993;SDS011;64680;53.800;9.988;2023-08-07T02:15:08;3.30;;;1.42;;
75993;SDS011;64680;53.800;9.988;2023-08-07T02:17:34;4.80;;;1.88;;
75993;SDS011;64680;53.800;9.988;2023-08-07T02:20:02;2.90;;;1.67;;
75993;SDS011;64680;53.800;9.988;2023-08-07T02:22:28;2.47;;;1.88;;
75993;SDS011;64680;53.800;9.988;2023-08-07T02:24:53;4.38;;;1.52;;
75993;SDS011;64680;53.800;9.988;2023-08-07T02:27:19;2.10;;;1.20;;
75993;SDS011;64680;53.800;9.988;2023-08-07T02:29:45;2.10;;;1.10;;
75993;SDS011;64680;53.800;9.988;2023-08-07T02:32:10;2.30;;;1.52;;
75993;SDS011;64680;53.800;9.988;2023-08-07T02:34:36;2.85;;;1.02;;
75993;SDS011;64680;53.800;9.988;2023-08-07T02:37:02;3.28;;;1.38;;
75993;SDS011;64680;53.800;9.988;2023-08-07T02:39:27;2.45;;;1.27;;
75993;SDS011;64680;53.800;9.988;2023-08-07T02:41:53;4.13;;;1.65;;
75993;SDS011;64680;53.800;9.988;2023-08-07T02:44:19;2.33;;;1.40;;
75993;SDS011;64680;53.800;9.988;2023-08-07T02:46:45;4.00;;;1.48;;
75993;SDS011;64680;53.800;9.988;2023-08-07T02:49:10;2.78;;;2.45;;
75993;SDS011;64680;53.800;9.988;2023-08-07T02:51:36;5.10;;;1.33;;
75993;SDS011;64680;53.800;9.988;2023-08-07T02:54:01;2.03;;;1.38;;
75993;SDS011;64680;53.800;9.988;2023-08-07T02:56:27;3.20;;;1.35;;
75993;SDS011;64680;53.800;9.988;2023-08-07T02:58:53;2.42;;;1.58;;
75993;SDS011;64680;53.800;9.988;2023-08-07T03:01:19;3.42;;;1.38;;
75993;SDS011;64680;53.800;9.988;2023-08-07T03:03:45;3.38;;;1.42;;
75993;SDS011;64680;53.800;9.988;2023-08-07T03:06:10;3.90;;;1.25;;
75993;SDS011;64680;53.800;9.988;2023-08-07T03:08:36;4.13;;;1.70;;
75993;SDS011;64680;53.800;9.988;2023-08-07T03:11:02;2.45;;;1.42;;
75993;SDS011;64680;53.800;9.988;2023-08-07T03:13:27;1.70;;;1.23;;
75993;SDS011;64680;53.800;9.988;2023-08-07T03:15:59;3.92;;;1.70;;
75993;SDS011;64680;53.800;9.988;2023-08-07T03:18:29;2.95;;;1.58;;
75993;SDS011;64680;53.800;9.988;2023-08-07T03:20:56;3.85;;;1.65;;
75993;SDS011;64680;53.800;9.988;2023-08-07T03:23:22;3.17;;;2.00;;
75993;SDS011;64680;53.800;9.988;2023-08-07T03:25:49;4.05;;;1.73;;
75993;SDS011;64680;53.800;9.988;2023-08-07T03:28:15;5.72;;;1.67;;
75993;SDS011;64680;53.800;9.988;2023-08-07T03:30:41;3.15;;;1.40;;
75993;SDS011;64680;53.800;9.988;2023-08-07T03:33:07;4.15;;;1.90;;
75993;SDS011;64680;53.800;9.988;2023-08-07T03:35:33;4.13;;;1.95;;
75993;SDS011;64680;53.800;9.988;2023-08-07T03:37:58;4.05;;;1.77;;
75993;SDS011;64680;53.800;9.988;2023-08-07T03:40:24;4.70;;;2.13;;
75993;SDS011;64680;53.800;9.988;2023-08-07T03:42:49;3.97;;;1.60;;
75993;SDS011;64680;53.800;9.988;2023-08-07T03:45:15;2.90;;;1.92;;
75993;SDS011;64680;53.800;9.988;2023-08-07T03:47:40;2.03;;;1.50;;
75993;SDS011;64680;53.800;9.988;2023-08-07T03:50:06;3.75;;;2.00;;
75993;SDS011;64680;53.800;9.988;2023-08-07T03:52:32;5.22;;;2.65;;
75993;SDS011;64680;53.800;9.988;2023-08-07T03:54:57;3.55;;;2.00;;
75993;SDS011;64680;53.800;9.988;2023-08-07T03:57:23;4.72;;;1.80;;
75993;SDS011;64680;53.800;9.988;2023-08-07T03:59:49;3.30;;;1.77;;
75993;SDS011;64680;53.800;9.988;2023-08-07T04:02:14;6.13;;;2.35;;
75993;SDS011;64680;53.800;9.988;2023-08-07T04:04:40;3.20;;;1.63;;
75993;SDS011;64680;53.800;9.988;2023-08-07T04:07:05;4.80;;;1.63;;
75993;SDS011;64680;53.800;9.988;2023-08-07T04:09:31;3.13;;;1.40;;
75993;SDS011;64680;53.800;9.988;2023-08-07T04:11:57;2.97;;;1.42;;
75993;SDS011;64680;53.800;9.988;2023-08-07T04:14:22;2.22;;;1.25;;
75993;SDS011;64680;53.800;9.988;2023-08-07T04:16:49;3.15;;;1.90;;
75993;SDS011;64680;53.800;9.988;2023-08-07T04:19:14;4.03;;;1.58;;
75993;SDS011;64680;53.800;9.988;2023-08-07T04:21:40;4.93;;;1.80;;
75993;SDS011;64680;53.800;9.988;2023-08-07T04:24:06;5.47;;;2.42;;
75993;SDS011;64680;53.800;9.988;2023-08-07T04:26:36;4.65;;;2.03;;
75993;SDS011;64680;53.800;9.988;2023-08-07T04:29:03;5.80;;;1.90;;
75993;SDS011;64680;53.800;9.988;2023-08-07T04:31:29;5.43;;;3.00;;
75993;SDS011;64680;53.800;9.988;2023-08-07T04:33:58;7.43;;;3.22;;
75993;SDS011;64680;53.800;9.988;2023-08-07T04:36:24;5.15;;;2.53;;
75993;SDS011;64680;53.800;9.988;2023-08-07T04:38:50;7.13;;;3.60;;
75993;SDS011;64680;53.800;9.988;2023-08-07T04:41:15;8.63;;;2.45;;
75993;SDS011;64680;53.800;9.988;2023-08-07T04:43:41;6.68;;;2.25;;
75993;SDS011;64680;53.800;9.988;2023-08-07T04:46:08;5.65;;;2.33;;
75993;SDS011;64680;53.800;9.988;2023-08-07T04:48:34;5.05;;;1.83;;
75993;SDS011;64680;53.800;9.988;2023-08-07T04:51:00;3.72;;;1.85;;
75993;SDS011;64680;53.800;9.988;2023-08-07T04:53:26;5.03;;;1.48;;
75993;SDS011;64680;53.800;9.988;2023-08-07T04:55:52;4.30;;;2.38;;
75993;SDS011;64680;53.800;9.988;2023-08-07T04:58:18;4.22;;;1.73;;
75993;SDS011;64680;53.800;9.988;2023-08-07T05:00:43;9.60;;;2.13;;
75993;SDS011;64680;53.800;9.988;2023-08-07T05:03:09;6.35;;;2.00;;
75993;SDS011;64680;53.800;9.988;2023-08-07T05:05:34;5.57;;;1.70;;
75993;SDS011;64680;53.800;9.988;2023-08-07T05:08:00;5.03;;;1.73;;
75993;SDS011;64680;53.800;9.988;2023-08-07T05:10:26;4.97;;;1.40;;
75993;SDS011;64680;53.800;9.988;2023-08-07T05:12:51;8.82;;;1.83;;
75993;SDS011;64680;53.800;9.988;2023-08-07T05:15:21;7.43;;;1.70;;
75993;SDS011;64680;53.800;9.988;2023-08-07T05:17:47;5.20;;;1.60;;
75993;SDS011;64680;53.800;9.988;2023-08-07T05:20:13;5.72;;;1.83;;
75993;SDS011;64680;53.800;9.988;2023-08-07T05:22:39;5.00;;;1.63;;
75993;SDS011;64680;53.800;9.988;2023-08-07T05:25:04;5.10;;;1.30;;
75993;SDS011;64680;53.800;9.988;2023-08-07T05:27:30;5.20;;;1.48;;
75993;SDS011;64680;53.800;9.988;2023-08-07T05:29:56;3.92;;;1.48;;
75993;SDS011;64680;53.800;9.988;2023-08-07T05:32:21;4.18;;;1.40;;
75993;SDS011;64680;53.800;9.988;2023-08-07T05:34:47;3.58;;;1.13;;
75993;SDS011;64680;53.800;9.988;2023-08-07T05:37:13;2.47;;;1.45;;
75993;SDS011;64680;53.800;9.988;2023-08-07T05:39:38;3.35;;;1.20;;
75993;SDS011;64680;53.800;9.988;2023-08-07T05:42:04;3.92;;;1.35;;
75993;SDS011;64680;53.800;9.988;2023-08-07T05:44:32;6.88;;;2.22;;
75993;SDS011;64680;53.800;9.988;2023-08-07T05:46:58;12.75;;;1.63;;
75993;SDS011;64680;53.800;9.988;2023-08-07T05:49:23;6.13;;;1.30;;
75993;SDS011;64680;53.800;9.988;2023-08-07T05:51:49;4.82;;;1.25;;
75993;SDS011;64680;53.800;9.988;2023-08-07T05:54:15;4.10;;;1.52;;
75993;SDS011;64680;53.800;9.988;2023-08-07T05:56:41;7.35;;;1.77;;
75993;SDS011;64680;53.800;9.988;2023-08-07T05:59:07;7.72;;;1.98;;
75993;SDS011;64680;53.800;9.988;2023-08-07T06:01:33;3.55;;;1.40;;
75993;SDS011;64680;53.800;9.988;2023-08-07T06:03:59;4.55;;;1.52;;
75993;SDS011;64680;53.800;9.988;2023-08-07T06:06:25;6.07;;;2.10;;
75993;SDS011;64680;53.800;9.988;2023-08-07T06:08:52;5.90;;;1.48;;
75993;SDS011;64680;53.800;9.988;2023-08-07T06:11:21;5.00;;;1.38;;
75993;SDS011;64680;53.800;9.988;2023-08-07T06:13:47;5.95;;;1.70;;
75993;SDS011;64680;53.800;9.988;2023-08-07T06:16:13;5.13;;;1.50;;
75993;SDS011;64680;53.800;9.988;2023-08-07T06:18:39;7.28;;;1.98;;
75993;SDS011;64680;53.800;9.988;2023-08-07T06:21:04;11.15;;;1.98;;
75993;SDS011;64680;53.800;9.988;2023-08-07T06:23:32;7.63;;;2.03;;
75993;SDS011;64680;53.800;9.988;2023-08-07T06:25:58;9.13;;;2.03;;
75993;SDS011;64680;53.800;9.988;2023-08-07T06:28:24;9.55;;;2.05;;
75993;SDS011;64680;53.800;9.988;2023-08-07T06:30:49;6.45;;;2.00;;
75993;SDS011;64680;53.800;9.988;2023-08-07T06:33:15;6.80;;;1.58;;
75993;SDS011;64680;53.800;9.988;2023-08-07T06:35:41;8.25;;;1.73;;
75993;SDS011;64680;53.800;9.988;2023-08-07T06:38:07;10.27;;;2.03;;
75993;SDS011;64680;53.800;9.988;2023-08-07T06:40:34;11.35;;;2.17;;
75993;SDS011;64680;53.800;9.988;2023-08-07T06:43:00;9.38;;;2.28;;
75993;SDS011;64680;53.800;9.988;2023-08-07T06:45:26;10.25;;;2.30;;
75993;SDS011;64680;53.800;9.988;2023-08-07T06:47:51;6.35;;;1.67;;
75993;SDS011;64680;53.800;9.988;2023-08-07T06:50:17;7.45;;;1.90;;
75993;SDS011;64680;53.800;9.988;2023-08-07T06:52:43;12.10;;;2.33;;
75993;SDS011;64680;53.800;9.988;2023-08-07T06:55:08;10.93;;;2.20;;
75993;SDS011;64680;53.800;9.988;2023-08-07T06:57:34;9.43;;;2.55;;
75993;SDS011;64680;53.800;9.988;2023-08-07T07:00:00;8.98;;;1.85;;
75993;SDS011;64680;53.800;9.988;2023-08-07T07:02:25;9.80;;;2.40;;
75993;SDS011;64680;53.800;9.988;2023-08-07T07:04:51;7.30;;;1.70;;
75993;SDS011;64680;53.800;9.988;2023-08-07T07:07:16;14.10;;;2.78;;
75993;SDS011;64680;53.800;9.988;2023-08-07T07:09:42;10.25;;;1.85;;
75993;SDS011;64680;53.800;9.988;2023-08-07T07:12:08;6.78;;;2.90;;
75993;SDS011;64680;53.800;9.988;2023-08-07T07:14:36;10.25;;;1.98;;
75993;SDS011;64680;53.800;9.988;2023-08-07T07:17:02;8.35;;;1.95;;
75993;SDS011;64680;53.800;9.988;2023-08-07T07:19:28;9.75;;;1.80;;
75993;SDS011;64680;53.800;9.988;2023-08-07T07:21:53;7.28;;;2.20;;
75993;SDS011;64680;53.800;9.988;2023-08-07T07:24:19;7.10;;;1.95;;
75993;SDS011;64680;53.800;9.988;2023-08-07T07:26:44;10.63;;;2.15;;
75993;SDS011;64680;53.800;9.988;2023-08-07T07:29:10;8.10;;;1.83;;
75993;SDS011;64680;53.800;9.988;2023-08-07T07:31:35;9.32;;;1.73;;
75993;SDS011;64680;53.800;9.988;2023-08-07T07:34:01;9.73;;;2.28;;
75993;SDS011;64680;53.800;9.988;2023-08-07T07:36:27;8.32;;;1.95;;
75993;SDS011;64680;53.800;9.988;2023-08-07T07:38:53;6.80;;;2.08;;
75993;SDS011;64680;53.800;9.988;2023-08-07T07:41:19;7.55;;;2.75;;
75993;SDS011;64680;53.800;9.988;2023-08-07T07:43:44;7.05;;;1.80;;
75993;SDS011;64680;53.800;9.988;2023-08-07T07:46:11;7.15;;;1.85;;
75993;SDS011;64680;53.800;9.988;2023-08-07T07:48:37;7.63;;;1.70;;
75993;SDS011;64680;53.800;9.988;2023-08-07T07:51:03;7.10;;;1.60;;
75993;SDS011;64680;53.800;9.988;2023-08-07T07:53:29;12.00;;;2.30;;
75993;SDS011;64680;53.800;9.988;2023-08-07T07:55:54;7.32;;;2.28;;
75993;SDS011;64680;53.800;9.988;2023-08-07T07:58:20;5.68;;;2.03;;
75993;SDS011;64680;53.800;9.988;2023-08-07T08:00:46;7.13;;;1.77;;
75993;SDS011;64680;53.800;9.988;2023-08-07T08:03:12;6.80;;;2.30;;
75993;SDS011;64680;53.800;9.988;2023-08-07T08:05:38;11.05;;;1.77;;
75993;SDS011;64680;53.800;9.988;2023-08-07T08:08:05;8.35;;;2.85;;
75993;SDS011;64680;53.800;9.988;2023-08-07T08:10:32;9.48;;;1.80;;
75993;SDS011;64680;53.800;9.988;2023-08-07T08:12:58;7.70;;;2.30;;
75993;SDS011;64680;53.800;9.988;2023-08-07T08:15:23;14.93;;;2.75;;
75993;SDS011;64680;53.800;9.988;2023-08-07T08:17:49;8.80;;;2.40;;
75993;SDS011;64680;53.800;9.988;2023-08-07T08:20:14;7.20;;;2.20;;
75993;SDS011;64680;53.800;9.988;2023-08-07T08:22:44;7.75;;;1.77;;
75993;SDS011;64680;53.800;9.988;2023-08-07T08:25:10;7.07;;;1.75;;
75993;SDS011;64680;53.800;9.988;2023-08-07T08:27:39;11.43;;;2.15;;
75993;SDS011;64680;53.800;9.988;2023-08-07T08:30:05;12.02;;;2.30;;
75993;SDS011;64680;53.800;9.988;2023-08-07T08:32:32;7.78;;;1.90;;
75993;SDS011;64680;53.800;9.988;2023-08-07T08:34:57;7.63;;;1.60;;
75993;SDS011;64680;53.800;9.988;2023-08-07T08:37:23;13.75;;;1.67;;
75993;SDS011;64680;53.800;9.988;2023-08-07T08:39:48;6.70;;;2.05;;
75993;SDS011;64680;53.800;9.988;2023-08-07T08:42:14;7.60;;;1.88;;
75993;SDS011;64680;53.800;9.988;2023-08-07T08:44:43;9.65;;;1.88;;
75993;SDS011;64680;53.800;9.988;2023-08-07T08:47:13;8.30;;;2.10;;
75993;SDS011;64680;53.800;9.988;2023-08-07T08:49:49;7.47;;;1.92;;
75993;SDS011;64680;53.800;9.988;2023-08-07T08:52:19;5.05;;;1.98;;
75993;SDS011;64680;53.800;9.988;2023-08-07T08:54:46;11.48;;;2.22;;
75993;SDS011;64680;53.800;9.988;2023-08-07T08:57:13;10.88;;;2.10;;
75993;SDS011;64680;53.800;9.988;2023-08-07T08:59:40;10.95;;;2.78;;
75993;SDS011;64680;53.800;9.988;2023-08-07T09:02:06;9.68;;;1.92;;
75993;SDS011;64680;53.800;9.988;2023-08-07T09:04:33;10.05;;;2.10;;
75993;SDS011;64680;53.800;9.988;2023-08-07T09:06:59;16.02;;;2.42;;
75993;SDS011;64680;53.800;9.988;2023-08-07T09:09:26;11.05;;;2.05;;
75993;SDS011;64680;53.800;9.988;2023-08-07T09:11:53;12.02;;;2.58;;
75993;SDS011;64680;53.800;9.988;2023-08-07T09:14:22;9.13;;;2.80;;
75993;SDS011;64680;53.800;9.988;2023-08-07T09:16:51;11.18;;;1.90;;
75993;SDS011;64680;53.800;9.988;2023-08-07T09:19:18;10.18;;;2.28;;
75993;SDS011;64680;53.800;9.988;2023-08-07T09:21:44;10.75;;;2.40;;
75993;SDS011;64680;53.800;9.988;2023-08-07T09:24:10;8.48;;;1.95;;
75993;SDS011;64680;53.800;9.988;2023-08-07T09:26:36;12.13;;;2.38;;
75993;SDS011;64680;53.800;9.988;2023-08-07T09:29:04;5.18;;;1.23;;
75993;SDS011;64680;53.800;9.988;2023-08-07T09:31:30;8.80;;;1.65;;
75993;SDS011;64680;53.800;9.988;2023-08-07T09:34:00;9.20;;;1.60;;
75993;SDS011;64680;53.800;9.988;2023-08-07T09:36:33;12.18;;;1.95;;
75993;SDS011;64680;53.800;9.988;2023-08-07T09:39:02;9.00;;;2.13;;
75993;SDS011;64680;53.800;9.988;2023-08-07T09:41:28;9.02;;;1.55;;
75993;SDS011;64680;53.800;9.988;2023-08-07T09:43:55;11.23;;;2.17;;
75993;SDS011;64680;53.800;9.988;2023-08-07T09:46:21;10.10;;;2.20;;
75993;SDS011;64680;53.800;9.988;2023-08-07T09:48:47;9.43;;;1.58;;
75993;SDS011;64680;53.800;9.988;2023-08-07T09:51:12;7.78;;;1.40;;
75993;SDS011;64680;53.800;9.988;2023-08-07T09:53:38;10.80;;;1.80;;
75993;SDS011;64680;53.800;9.988;2023-08-07T09:56:04;12.10;;;1.88;;
75993;SDS011;64680;53.800;9.988;2023-08-07T09:58:30;8.10;;;1.90;;
75993;SDS011;64680;53.800;9.988;2023-08-07T10:00:58;7.13;;;1.83;;
75993;SDS011;64680;53.800;9.988;2023-08-07T10:03:25;8.63;;;1.70;;
75993;SDS011;64680;53.800;9.988;2023-08-07T10:05:51;11.05;;;2.80;;
75993;SDS011;64680;53.800;9.988;2023-08-07T10:08:17;8.75;;;1.92;;
75993;SDS011;64680;53.800;9.988;2023-08-07T10:10:43;10.52;;;2.25;;
75993;SDS011;64680;53.800;9.988;2023-08-07T10:13:12;9.13;;;1.92;;
75993;SDS011;64680;53.800;9.988;2023-08-07T10:15:38;10.73;;;1.98;;
75993;SDS011;64680;53.800;9.988;2023-08-07T10:18:05;7.15;;;1.65;;
75993;SDS011;64680;53.800;9.988;2023-08-07T10:20:31;8.85;;;1.70;;
75993;SDS011;64680;53.800;9.988;2023-08-07T10:23:04;5.70;;;1.42;;
75993;SDS011;64680;53.800;9.988;2023-08-07T10:25:32;9.13;;;1.50;;
75993;SDS011;64680;53.800;9.988;2023-08-07T10:28:00;5.75;;;1.42;;
75993;SDS011;64680;53.800;9.988;2023-08-07T10:30:28;7.95;;;1.83;;
75993;SDS011;64680;53.800;9.988;2023-08-07T10:32:55;7.45;;;1.77;;
75993;SDS011;64680;53.800;9.988;2023-08-07T10:35:24;7.88;;;1.25;;
75993;SDS011;64680;53.800;9.988;2023-08-07T10:38:04;6.85;;;1.85;;
75993;SDS011;64680;53.800;9.988;2023-08-07T10:40:31;11.07;;;1.55;;
75993;SDS011;64680;53.800;9.988;2023-08-07T10:43:12;9.38;;;1.90;;
75993;SDS011;64680;53.800;9.988;2023-08-07T10:45:41;6.93;;;1.10;;
75993;SDS011;64680;53.800;9.988;2023-08-07T10:48:07;6.35;;;1.90;;
75993;SDS011;64680;53.800;9.988;2023-08-07T10:50:46;9.32;;;1.85;;
75993;SDS011;64680;53.800;9.988;2023-08-07T10:53:33;9.50;;;1.90;;
75993;SDS011;64680;53.800;9.988;2023-08-07T10:56:09;8.35;;;1.55;;
75993;SDS011;64680;53.800;9.988;2023-08-07T10:58:40;7.53;;;1.63;;
75993;SDS011;64680;53.800;9.988;2023-08-07T11:03:55;9.05;;;1.92;;
75993;SDS011;64680;53.800;9.988;2023-08-07T11:06:23;8.98;;;1.60;;
75993;SDS011;64680;53.800;9.988;2023-08-07T11:08:59;6.47;;;1.40;;
75993;SDS011;64680;53.800;9.988;2023-08-07T11:11:26;9.32;;;1.90;;
75993;SDS011;64680;53.800;9.988;2023-08-07T11:13:52;6.75;;;1.65;;
75993;SDS011;64680;53.800;9.988;2023-08-07T11:16:18;5.32;;;1.58;;
75993;SDS011;64680;53.800;9.988;2023-08-07T11:18:46;9.77;;;1.73;;
75993;SDS011;64680;53.800;9.988;2023-08-07T11:21:13;7.60;;;1.20;;
75993;SDS011;64680;53.800;9.988;2023-08-07T11:23:39;5.20;;;1.15;;
75993;SDS011;64680;53.800;9.988;2023-08-07T11:26:05;5.50;;;1.02;;
75993;SDS011;64680;53.800;9.988;2023-08-07T11:28:31;4.00;;;1.38;;
75993;SDS011;64680;53.800;9.988;2023-08-07T11:30:57;6.47;;;1.23;;
75993;SDS011;64680;53.800;9.988;2023-08-07T11:33:23;10.25;;;1.30;;
75993;SDS011;64680;53.800;9.988;2023-08-07T11:35:50;6.95;;;1.15;;
75993;SDS011;64680;53.800;9.988;2023-08-07T11:38:32;8.85;;;1.40;;
75993;SDS011;64680;53.800;9.988;2023-08-07T11:40:59;7.40;;;1.25;;
75993;SDS011;64680;53.800;9.988;2023-08-07T11:43:29;5.07;;;1.17;;
75993;SDS011;64680;53.800;9.988;2023-08-07T11:45:55;2.70;;;0.90;;
75993;SDS011;64680;53.800;9.988;2023-08-07T11:50:49;3.08;;;1.02;;
75993;SDS011;64680;53.800;9.988;2023-08-07T11:53:15;8.23;;;0.98;;
75993;SDS011;64680;53.800;9.988;2023-08-07T11:55:47;7.00;;;1.15;;
75993;SDS011;64680;53.800;9.988;2023-08-07T11:58:27;6.25;;;1.38;;
75993;SDS011;64680;53.800;9.988;2023-08-07T12:00:58;7.32;;;1.77;;
75993;SDS011;64680;53.800;9.988;2023-08-07T12:03:30;5.47;;;1.50;;
75993;SDS011;64680;53.800;9.988;2023-08-07T12:05:58;4.07;;;1.17;;
75993;SDS011;64680;53.800;9.988;2023-08-07T12:08:37;5.85;;;1.52;;
75993;SDS011;64680;53.800;9.988;2023-08-07T12:11:04;5.95;;;1.40;;
75993;SDS011;64680;53.800;9.988;2023-08-07T12:13:31;7.82;;;1.30;;
75993;SDS011;64680;53.800;9.988;2023-08-07T12:16:00;7.85;;;1.55;;
75993;SDS011;64680;53.800;9.988;2023-08-07T12:18:26;6.47;;;1.40;;
75993;SDS011;64680;53.800;9.988;2023-08-07T12:20:52;8.02;;;1.42;;
75993;SDS011;64680;53.800;9.988;2023-08-07T12:23:23;8.40;;;1.45;;
75993;SDS011;64680;53.800;9.988;2023-08-07T12:25:48;6.43;;;1.52;;
75993;SDS011;64680;53.800;9.988;2023-08-07T12:28:15;7.47;;;1.58;;
75993;SDS011;64680;53.800;9.988;2023-08-07T12:30:43;9.18;;;1.60;;
75993;SDS011;64680;53.800;9.988;2023-08-07T12:33:13;8.63;;;1.70;;
75993;SDS011;64680;53.800;9.988;2023-08-07T12:35:39;6.85;;;1.35;;
75993;SDS011;64680;53.800;9.988;2023-08-07T12:38:06;5.63;;;1.27;;
75993;SDS011;64680;53.800;9.988;2023-08-07T12:40:32;5.75;;;1.02;;
75993;SDS011;64680;53.800;9.988;2023-08-07T12:42:57;4.65;;;0.95;;
75993;SDS011;64680;53.800;9.988;2023-08-07T12:45:23;5.45;;;1.85;;
75993;SDS011;64680;53.800;9.988;2023-08-07T12:47:49;5.40;;;1.23;;
75993;SDS011;64680;53.800;9.988;2023-08-07T12:50:15;9.07;;;1.35;;
75993;SDS011;64680;53.800;9.988;2023-08-07T12:52:41;6.55;;;0.93;;
75993;SDS011;64680;53.800;9.988;2023-08-07T12:55:06;7.97;;;1.48;;
75993;SDS011;64680;53.800;9.988;2023-08-07T12:57:33;6.57;;;1.60;;
75993;SDS011;64680;53.800;9.988;2023-08-07T12:59:58;5.45;;;1.10;;
75993;SDS011;64680;53.800;9.988;2023-08-07T13:02:24;5.72;;;1.15;;
75993;SDS011;64680;53.800;9.988;2023-08-07T13:04:50;5.47;;;1.35;;
75993;SDS011;64680;53.800;9.988;2023-08-07T13:07:16;8.52;;;1.60;;
75993;SDS011;64680;53.800;9.988;2023-08-07T13:09:42;7.13;;;1.75;;
75993;SDS011;64680;53.800;9.988;2023-08-07T13:12:08;11.80;;;1.67;;
75993;SDS011;64680;53.800;9.988;2023-08-07T13:14:34;6.53;;;1.70;;
75993;SDS011;64680;53.800;9.988;2023-08-07T13:16:59;8.65;;;2.00;;
75993;SDS011;64680;53.800;9.988;2023-08-07T13:19:25;6.25;;;2.25;;
75993;SDS011;64680;53.800;9.988;2023-08-07T13:21:50;8.13;;;1.63;;
75993;SDS011;64680;53.800;9.988;2023-08-07T13:24:16;9.10;;;2.22;;
75993;SDS011;64680;53.800;9.988;2023-08-07T13:26:41;11.60;;;2.13;;
75993;SDS011;64680;53.800;9.988;2023-08-07T13:29:13;9.55;;;1.85;;
75993;SDS011;64680;53.800;9.988;2023-08-07T13:31:39;5.45;;;1.50;;
75993;SDS011;64680;53.800;9.988;2023-08-07T13:34:11;9.93;;;1.98;;
75993;SDS011;64680;53.800;9.988;2023-08-07T13:36:37;8.18;;;1.65;;
75993;SDS011;64680;53.800;9.988;2023-08-07T13:39:03;14.25;;;2.20;;
75993;SDS011;64680;53.800;9.988;2023-08-07T13:41:30;14.38;;;1.80;;
75993;SDS011;64680;53.800;9.988;2023-08-07T13:43:55;6.32;;;1.50;;
75993;SDS011;64680;53.800;9.988;2023-08-07T13:46:21;11.98;;;1.83;;
75993;SDS011;64680;53.800;9.988;2023-08-07T13:48:47;5.90;;;1.80;;
75993;SDS011;64680;53.800;9.988;2023-08-07T13:51:16;8.02;;;1.98;;
75993;SDS011;64680;53.800;9.988;2023-08-07T13:53:43;7.18;;;1.67;;
75993;SDS011;64680;53.800;9.988;2023-08-07T13:56:09;11.27;;;1.55;;
75993;SDS011;64680;53.800;9.988;2023-08-07T13:58:37;6.90;;;1.83;;
75993;SDS011;64680;53.800;9.988;2023-08-07T14:01:07;7.20;;;1.50;;
75993;SDS011;64680;53.800;9.988;2023-08-07T14:03:33;5.85;;;1.80;;
75993;SDS011;64680;53.800;9.988;2023-08-07T14:05:59;8.65;;;1.92;;
75993;SDS011;64680;53.800;9.988;2023-08-07T14:08:25;7.35;;;1.83;;
75993;SDS011;64680;53.800;9.988;2023-08-07T14:10:50;8.15;;;1.88;;
75993;SDS011;64680;53.800;9.988;2023-08-07T14:13:16;6.25;;;1.55;;
75993;SDS011;64680;53.800;9.988;2023-08-07T14:15:41;5.38;;;1.75;;
75993;SDS011;64680;53.800;9.988;2023-08-07T14:18:07;10.95;;;2.22;;
75993;SDS011;64680;53.800;9.988;2023-08-07T14:20:34;7.72;;;1.73;;
75993;SDS011;64680;53.800;9.988;2023-08-07T14:23:00;8.07;;;1.70;;
75993;SDS011;64680;53.800;9.988;2023-08-07T14:25:25;7.30;;;2.03;;
75993;SDS011;64680;53.800;9.988;2023-08-07T14:27:51;6.13;;;1.60;;
75993;SDS011;64680;53.800;9.988;2023-08-07T14:30:17;9.40;;;1.90;;
75993;SDS011;64680;53.800;9.988;2023-08-07T14:32:42;5.55;;;1.20;;
75993;SDS011;64680;53.800;9.988;2023-08-07T14:35:08;6.15;;;1.38;;
75993;SDS011;64680;53.800;9.988;2023-08-07T14:37:34;10.45;;;1.60;;
75993;SDS011;64680;53.800;9.988;2023-08-07T14:39:59;8.05;;;1.50;;
75993;SDS011;64680;53.800;9.988;2023-08-07T14:42:26;6.93;;;1.80;;
75993;SDS011;64680;53.800;9.988;2023-08-07T14:44:52;8.15;;;1.83;;
75993;SDS011;64680;53.800;9.988;2023-08-07T14:47:18;8.18;;;1.52;;
75993;SDS011;64680;53.800;9.988;2023-08-07T14:49:43;8.70;;;1.70;;